Time;durP1;ratioP1;P1;durP2;ratioP2;P2;SDS_P1;SDS_P2;PMS_P1;PMS_P2;Temp;Humidity;BMP_temperature;BMP_pressure;BME280_temperature;BME280_humidity;BME280_pressure;Samples;Min_cycle;Max_cycle;Signal;HPM_P1;HPM_P2
2023/06/28 00:00:31;;;;;;;7.97;5.65;;;13.40;99.90;;;;;;5039679;28;20031;-91
2023/06/28 00:02:57;;;;;;;9.02;5.50;;;13.30;99.90;;;;;;5050741;28;20074;-89
2023/06/28 00:05:23;;;;;;;6.90;5.28;;;13.30;99.90;;;;;;5034206;28;20021;-89
2023/06/28 00:07:51;;;;;;;7.00;5.28;;;13.30;99.90;;;;;;5032185;28;20022;-88
2023/06/28 00:10:26;;;;;;;6.90;5.13;;;13.20;99.90;;;;;;5051400;28;20581;-90
2023/06/28 00:12:51;;;;;;;8.32;5.30;;;13.20;99.90;;;;;;5050309;28;20032;-91
2023/06/28 00:15:20;;;;;;;6.38;5.75;;;13.20;99.90;;;;;;5050024;28;20165;-90
2023/06/28 00:17:45;;;;;;;6.97;5.90;;;13.10;99.90;;;;;;5033578;28;20032;-91
2023/06/28 00:20:12;;;;;;;9.45;5.40;;;13.20;99.90;;;;;;5050080;28;20120;-90
2023/06/28 00:22:39;;;;;;;5.20;4.60;;;13.10;99.90;;;;;;5033599;28;20124;-90
2023/06/28 00:25:14;;;;;;;5.60;5.10;;;13.10;99.90;;;;;;5031591;28;20029;-90
2023/06/28 00:27:40;;;;;;;7.78;4.82;;;13.10;99.90;;;;;;5048005;28;20116;-90
2023/06/28 00:30:07;;;;;;;6.68;4.20;;;13.10;99.90;;;;;;5030558;28;20033;-89
2023/06/28 00:32:32;;;;;;;4.72;4.15;;;13.10;99.90;;;;;;5049366;28;20041;-90
2023/06/28 00:34:58;;;;;;;4.65;4.25;;;13.00;99.90;;;;;;5050728;28;20036;-89
2023/06/28 00:37:25;;;;;;;4.70;4.32;;;13.00;99.90;;;;;;5034215;28;20540;-90
2023/06/28 00:39:51;;;;;;;5.95;4.93;;;12.90;99.90;;;;;;5033271;28;20029;-90
2023/06/28 00:42:17;;;;;;;4.82;4.40;;;12.80;99.90;;;;;;5035881;28;20158;-90
2023/06/28 00:44:43;;;;;;;5.65;4.32;;;12.80;99.90;;;;;;5037049;28;20029;-90
2023/06/28 00:47:09;;;;;;;5.55;4.93;;;12.80;99.90;;;;;;5054611;28;20025;-89
2023/06/28 00:49:37;;;;;;;5.25;4.75;;;12.70;99.90;;;;;;5037657;28;20118;-90
2023/06/28 00:52:08;;;;;;;7.03;4.57;;;12.70;99.90;;;;;;5046708;28;20504;-88
2023/06/28 00:54:34;;;;;;;5.68;5.10;;;12.60;99.90;;;;;;5037491;28;20025;-89
2023/06/28 00:57:00;;;;;;;6.80;4.72;;;12.60;99.90;;;;;;5036725;28;20483;-89
2023/06/28 00:59:26;;;;;;;6.57;4.80;;;12.60;99.90;;;;;;5032106;28;20681;-90
2023/06/28 01:01:53;;;;;;;5.38;4.88;;;12.50;99.90;;;;;;5050917;28;20055;-89
2023/06/28 01:04:19;;;;;;;6.03;5.32;;;12.50;99.90;;;;;;5036810;28;20493;-90
2023/06/28 01:06:51;;;;;;;5.95;4.65;;;12.50;99.90;;;;;;5036845;28;20025;-89
2023/06/28 01:09:20;;;;;;;6.30;4.63;;;12.50;99.90;;;;;;5037602;28;20025;-89
2023/06/28 01:11:48;;;;;;;5.82;4.95;;;12.40;99.90;;;;;;5037172;28;20053;-89
2023/06/28 01:14:15;;;;;;;5.30;4.80;;;12.40;99.90;;;;;;5037058;28;20066;-91
2023/06/28 01:16:41;;;;;;;5.30;4.80;;;12.40;99.90;;;;;;5037421;28;20086;-89
2023/06/28 01:19:13;;;;;;;5.63;5.13;;;12.30;99.90;;;;;;5037440;28;20021;-89
2023/06/28 01:21:42;;;;;;;4.55;4.13;;;12.30;99.90;;;;;;5033975;28;20021;-89
2023/06/28 01:24:10;;;;;;;5.40;4.90;;;12.30;99.90;;;;;;5050033;28;20025;-89
2023/06/28 01:26:40;;;;;;;5.03;4.60;;;12.20;99.90;;;;;;5053496;28;20035;-90
2023/06/28 01:29:25;;;;;;;4.47;4.07;;;12.20;99.90;;;;;;5033920;28;20137;-91
2023/06/28 01:31:56;;;;;;;3.70;3.33;;;12.20;99.90;;;;;;5047239;28;20315;-89
2023/06/28 01:34:26;;;;;;;4.20;3.90;;;12.20;99.90;;;;;;5033164;28;20033;-89
2023/06/28 01:36:54;;;;;;;7.20;4.47;;;12.10;99.90;;;;;;5043673;28;20037;-89
2023/06/28 01:39:22;;;;;;;4.40;4.00;;;12.10;99.90;;;;;;5046703;28;20032;-88
2023/06/28 01:41:52;;;;;;;4.60;4.22;;;12.10;99.90;;;;;;5041763;28;20131;-89
2023/06/28 01:44:19;;;;;;;4.80;4.28;;;12.10;99.90;;;;;;5036360;28;20032;-89
2023/06/28 01:46:46;;;;;;;4.80;4.40;;;12.00;99.90;;;;;;5033167;28;20415;-89
2023/06/28 01:49:12;;;;;;;4.78;4.38;;;12.00;99.90;;;;;;5016757;28;20442;-89
2023/06/28 01:51:39;;;;;;;6.97;5.40;;;12.00;99.90;;;;;;5024190;28;20044;-89
2023/06/28 01:54:05;;;;;;;4.80;4.40;;;12.00;99.90;;;;;;5052271;28;20483;-89
2023/06/28 01:56:31;;;;;;;4.45;4.05;;;11.90;99.90;;;;;;5032742;28;20037;-89
2023/06/28 01:58:57;;;;;;;4.68;4.03;;;11.90;99.90;;;;;;5051357;28;20087;-89
2023/06/28 02:01:23;;;;;;;6.78;4.15;;;11.90;99.90;;;;;;5032657;28;20029;-89
2023/06/28 02:03:49;;;;;;;5.10;4.07;;;11.80;99.90;;;;;;5032590;28;20406;-89
2023/06/28 02:06:15;;;;;;;4.47;4.07;;;11.80;99.90;;;;;;5032820;28;20513;-89
2023/06/28 02:08:41;;;;;;;4.60;4.20;;;11.80;99.90;;;;;;5031546;28;20116;-89
2023/06/28 02:11:07;;;;;;;3.83;3.53;;;11.80;99.90;;;;;;5036161;28;20043;-90
2023/06/28 02:13:33;;;;;;;4.60;4.20;;;11.70;99.90;;;;;;5051926;28;20103;-89
2023/06/28 02:15:58;;;;;;;4.85;4.03;;;11.70;99.90;;;;;;5051923;28;20025;-90
2023/06/28 02:18:24;;;;;;;4.10;3.80;;;11.70;99.90;;;;;;5035667;28;20025;-89
2023/06/28 02:20:54;;;;;;;4.63;4.22;;;11.60;99.90;;;;;;5033431;28;20108;-89
2023/06/28 02:23:20;;;;;;;4.80;4.40;;;11.50;99.90;;;;;;5031502;28;20022;-89
2023/06/28 02:25:46;;;;;;;5.65;5.05;;;11.50;99.90;;;;;;5048681;28;20111;-89
2023/06/28 02:28:13;;;;;;;6.18;5.50;;;11.50;99.90;;;;;;5044132;28;20045;-89
2023/06/28 02:30:39;;;;;;;7.45;5.00;;;11.50;99.90;;;;;;5034778;28;20044;-90
2023/06/28 02:33:05;;;;;;;7.18;4.90;;;11.50;99.90;;;;;;5050317;28;20039;-89
2023/06/28 02:35:31;;;;;;;5.85;4.88;;;11.50;99.90;;;;;;5034737;28;20028;-88
2023/06/28 02:37:57;;;;;;;5.63;4.65;;;11.50;99.90;;;;;;5051719;28;20475;-90
2023/06/28 02:40:24;;;;;;;5.85;4.70;;;11.50;99.90;;;;;;5035058;28;20033;-89
2023/06/28 02:42:50;;;;;;;5.10;4.70;;;11.50;99.90;;;;;;5034694;28;20024;-89
2023/06/28 02:45:18;;;;;;;5.05;4.63;;;11.40;99.90;;;;;;5035151;28;20028;-89
2023/06/28 02:47:44;;;;;;;4.90;4.50;;;11.50;99.90;;;;;;5035211;28;20035;-90
2023/06/28 02:50:11;;;;;;;4.97;4.35;;;11.40;99.90;;;;;;5034307;28;20037;-89
2023/06/28 02:52:59;;;;;;;4.43;4.03;;;11.50;99.90;;;;;;5037548;28;20039;-89
2023/06/28 02:55:43;;;;;;;4.63;4.22;;;11.50;99.90;;;;;;5037056;28;20089;-89
2023/06/28 02:58:27;;;;;;;5.03;4.65;;;11.40;99.90;;;;;;5051701;28;20075;-89
2023/06/28 03:00:54;;;;;;;5.50;4.53;;;11.40;99.90;;;;;;5033169;28;20033;-90
2023/06/28 03:03:22;;;;;;;4.88;4.47;;;11.40;99.90;;;;;;5033817;28;20033;-89
2023/06/28 03:05:57;;;;;;;4.95;4.55;;;11.40;99.90;;;;;;5031331;28;20033;-90
2023/06/28 03:08:23;;;;;;;5.47;4.50;;;11.40;99.90;;;;;;5034503;28;20082;-89
2023/06/28 03:10:49;;;;;;;5.15;4.68;;;11.40;99.90;;;;;;5032118;28;20025;-91
2023/06/28 03:13:14;;;;;;;4.65;4.30;;;11.40;99.90;;;;;;5034082;28;20033;-90
2023/06/28 03:15:40;;;;;;;4.30;4.00;;;11.40;99.90;;;;;;5050912;28;20024;-90
2023/06/28 03:18:07;;;;;;;4.63;4.22;;;11.40;99.90;;;;;;5034698;28;20116;-90
2023/06/28 03:20:33;;;;;;;4.90;4.20;;;11.40;99.90;;;;;;5034596;28;20029;-89
2023/06/28 03:22:59;;;;;;;4.90;4.38;;;11.40;99.90;;;;;;5033717;28;20601;-91
2023/06/28 03:25:25;;;;;;;4.82;4.32;;;11.40;99.90;;;;;;5033036;28;20392;-89
2023/06/28 03:27:50;;;;;;;4.78;4.38;;;11.30;99.90;;;;;;5032827;28;20120;-90
2023/06/28 03:30:17;;;;;;;7.22;5.07;;;11.40;99.90;;;;;;5034496;28;20029;-89
2023/06/28 03:32:43;;;;;;;5.13;4.63;;;11.30;99.90;;;;;;5038324;28;20533;-90
2023/06/28 03:35:09;;;;;;;5.40;5.00;;;11.40;99.90;;;;;;5033639;28;20056;-89
2023/06/28 03:37:34;;;;;;;5.75;4.88;;;11.40;99.90;;;;;;5034232;28;20040;-89
2023/06/28 03:40:01;;;;;;;5.63;4.55;;;11.40;99.90;;;;;;5016251;28;20033;-89
2023/06/28 03:42:27;;;;;;;5.50;4.97;;;11.50;99.90;;;;;;5033636;28;20094;-89
2023/06/28 03:44:53;;;;;;;6.22;4.75;;;11.50;99.90;;;;;;5048282;28;20494;-89
2023/06/28 03:47:19;;;;;;;4.90;4.50;;;11.50;99.90;;;;;;5050306;28;20037;-90
2023/06/28 03:49:47;;;;;;;4.97;4.47;;;11.50;99.90;;;;;;5033816;28;20024;-89
2023/06/28 03:52:13;;;;;;;5.75;4.55;;;11.50;99.90;;;;;;5033380;28;20540;-89
2023/06/28 03:54:39;;;;;;;7.88;5.03;;;11.60;99.90;;;;;;5033271;28;20040;-89
2023/06/28 03:57:05;;;;;;;5.85;5.20;;;11.60;99.90;;;;;;5033301;28;20094;-90
2023/06/28 03:59:32;;;;;;;8.65;5.60;;;11.50;99.90;;;;;;5050269;28;20032;-90
2023/06/28 04:01:58;;;;;;;5.10;4.70;;;11.60;99.90;;;;;;5050026;28;20024;-89
2023/06/28 04:04:24;;;;;;;5.38;4.90;;;11.60;99.90;;;;;;5033169;28;20029;-88
2023/06/28 04:06:50;;;;;;;5.78;5.20;;;11.70;99.90;;;;;;5005175;28;20029;-89
2023/06/28 04:09:16;;;;;;;6.25;4.90;;;11.70;99.90;;;;;;5033548;28;20041;-89
2023/06/28 04:11:42;;;;;;;5.40;4.82;;;11.80;99.90;;;;;;5032354;28;20032;-89
2023/06/28 04:14:08;;;;;;;5.72;5.22;;;11.80;99.90;;;;;;5047999;28;20037;-89
2023/06/28 04:16:34;;;;;;;8.85;5.70;;;11.80;99.90;;;;;;5032976;28;20033;-89
2023/06/28 04:19:00;;;;;;;5.97;5.32;;;11.90;99.90;;;;;;5033360;28;20013;-89
2023/06/28 04:21:26;;;;;;;7.82;5.95;;;11.90;99.90;;;;;;5029601;28;20454;-89
2023/06/28 04:23:51;;;;;;;5.93;5.40;;;12.00;99.90;;;;;;5046838;28;20380;-89
2023/06/28 04:26:36;;;;;;;7.18;6.57;;;12.00;99.90;;;;;;5050027;28;20052;-90
2023/06/28 04:29:02;;;;;;;7.53;6.20;;;12.10;99.90;;;;;;5032975;28;20036;-89
2023/06/28 04:31:28;;;;;;;6.32;5.72;;;12.20;99.90;;;;;;5030501;28;20026;-89
2023/06/28 04:33:57;;;;;;;5.78;5.18;;;12.20;99.90;;;;;;5047431;28;20502;-89
2023/06/28 04:36:25;;;;;;;5.28;4.88;;;12.30;99.90;;;;;;5033196;28;20114;-89
2023/06/28 04:38:55;;;;;;;6.05;5.22;;;12.40;99.90;;;;;;5032989;28;20029;-90
2023/06/28 04:41:27;;;;;;;6.47;5.63;;;12.50;99.90;;;;;;5033574;28;20032;-88
2023/06/28 04:43:56;;;;;;;7.28;5.15;;;12.50;99.90;;;;;;5032702;28;20025;-88
2023/06/28 04:46:23;;;;;;;5.90;5.40;;;12.60;99.90;;;;;;5033042;28;20029;-89
2023/06/28 04:48:50;;;;;;;6.20;5.60;;;12.60;99.90;;;;;;5033281;28;20021;-89
2023/06/28 04:51:17;;;;;;;5.63;5.10;;;12.70;99.90;;;;;;5033232;28;20033;-89
2023/06/28 04:53:43;;;;;;;6.72;5.63;;;12.70;99.90;;;;;;5029437;28;20029;-89
2023/06/28 04:56:09;;;;;;;9.52;5.00;;;12.80;99.90;;;;;;5018579;28;20051;-89
2023/06/28 04:58:37;;;;;;;9.20;5.45;;;12.90;99.90;;;;;;5038135;28;20025;-89
2023/06/28 05:01:07;;;;;;;6.32;5.00;;;12.90;99.90;;;;;;5049892;28;20061;-90
2023/06/28 05:03:38;;;;;;;7.85;5.25;;;13.00;99.90;;;;;;5045015;28;20024;-89
2023/06/28 05:06:08;;;;;;;6.28;5.68;;;13.00;99.90;;;;;;5032579;28;20458;-90
2023/06/28 05:08:34;;;;;;;7.10;5.72;;;13.00;99.90;;;;;;5054341;28;20033;-88
2023/06/28 05:11:01;;;;;;;5.97;5.35;;;13.00;99.90;;;;;;5032968;28;20470;-88
2023/06/28 05:13:28;;;;;;;7.38;5.35;;;12.90;99.90;;;;;;5032935;28;20495;-89
2023/06/28 05:15:54;;;;;;;6.43;5.75;;;13.00;99.90;;;;;;5030823;28;20032;-89
2023/06/28 05:18:19;;;;;;;9.35;6.45;;;13.00;99.90;;;;;;5035063;28;20025;-89
2023/06/28 05:20:46;;;;;;;9.60;6.68;;;12.90;99.90;;;;;;5036263;28;20022;-90
2023/06/28 05:23:22;;;;;;;10.13;6.45;;;12.80;99.90;;;;;;5028868;28;20057;-90
2023/06/28 05:25:48;;;;;;;12.00;6.57;;;12.90;99.90;;;;;;5046068;28;20079;-90
2023/06/28 05:28:32;;;;;;;9.55;6.53;;;12.90;99.90;;;;;;5052550;28;20473;-89
2023/06/28 05:30:58;;;;;;;8.07;5.97;;;13.10;99.90;;;;;;5036442;28;20033;-90
2023/06/28 05:33:24;;;;;;;6.13;5.63;;;13.40;99.90;;;;;;5052304;28;20029;-90
2023/06/28 05:35:50;;;;;;;6.90;4.60;;;13.70;99.90;;;;;;5003180;28;20037;-89
2023/06/28 05:38:16;;;;;;;6.07;4.45;;;14.20;99.90;;;;;;5052976;28;20120;-89
2023/06/28 05:40:42;;;;;;;4.75;4.20;;;14.60;99.90;;;;;;5033232;28;20026;-90
2023/06/28 05:43:08;;;;;;;5.35;3.95;;;15.20;99.90;;;;;;5035832;28;20462;-90
2023/06/28 05:45:34;;;;;;;3.45;3.10;;;15.60;99.90;;;;;;5035959;28;20029;-89
2023/06/28 05:48:00;;;;;;;3.17;2.88;;;16.10;99.90;;;;;;5053220;28;20056;-89
2023/06/28 05:50:26;;;;;;;3.03;2.72;;;16.40;99.90;;;;;;5020194;28;20025;-89
2023/06/28 05:52:52;;;;;;;2.95;2.75;;;16.70;99.90;;;;;;5036648;28;20628;-89
2023/06/28 05:55:17;;;;;;;5.97;3.00;;;17.00;99.90;;;;;;5001194;28;20128;-88
2023/06/28 05:57:44;;;;;;;3.70;2.45;;;17.40;99.90;;;;;;5000036;28;20033;-89
2023/06/28 06:00:11;;;;;;;2.70;2.50;;;17.90;99.90;;;;;;5041616;28;20715;-88
2023/06/28 06:02:37;;;;;;;2.75;2.55;;;18.10;99.90;;;;;;5007095;28;20040;-89
2023/06/28 06:05:04;;;;;;;5.78;2.67;;;18.40;99.90;;;;;;5035958;28;20029;-89
2023/06/28 06:07:30;;;;;;;3.40;2.92;;;18.60;99.90;;;;;;5032970;28;20037;-89
2023/06/28 06:09:56;;;;;;;3.45;2.70;;;19.00;99.90;;;;;;5050717;28;20025;-89
2023/06/28 06:12:23;;;;;;;3.42;2.38;;;19.10;99.90;;;;;;5035800;28;20513;-89
2023/06/28 06:14:50;;;;;;;3.75;2.88;;;19.30;99.90;;;;;;5036310;28;20449;-90
2023/06/28 06:17:19;;;;;;;3.83;2.80;;;19.20;99.90;;;;;;5036299;28;20048;-89
2023/06/28 06:19:45;;;;;;;2.42;2.20;;;19.40;99.90;;;;;;5035743;28;20036;-89
2023/06/28 06:22:11;;;;;;;2.50;2.30;;;19.60;99.90;;;;;;5036592;28;20041;-89
2023/06/28 06:24:37;;;;;;;4.93;2.45;;;20.00;99.90;;;;;;5036531;28;20044;-88
2023/06/28 06:27:03;;;;;;;4.05;2.35;;;20.50;99.90;;;;;;5036148;28;20395;-89
2023/06/28 06:29:30;;;;;;;2.22;1.95;;;20.90;99.90;;;;;;5036179;28;20041;-88
2023/06/28 06:31:55;;;;;;;2.95;1.90;;;21.30;99.90;;;;;;5033263;28;20033;-88
2023/06/28 06:34:21;;;;;;;3.35;1.80;;;21.50;99.90;;;;;;5037771;28;20398;-87
2023/06/28 06:36:47;;;;;;;1.73;1.50;;;21.90;99.90;;;;;;5036309;28;20495;-89
2023/06/28 06:39:13;;;;;;;4.30;1.90;;;22.10;99.90;;;;;;5019011;28;20033;-89
2023/06/28 06:41:39;;;;;;;2.28;1.70;;;22.30;99.90;;;;;;5009043;28;20051;-88
2023/06/28 06:44:09;;;;;;;3.58;1.70;;;22.70;99.90;;;;;;5043801;28;20032;-89
2023/06/28 06:46:36;;;;;;;3.42;1.80;;;23.00;99.90;;;;;;5035755;28;20406;-89
2023/06/28 06:49:02;;;;;;;6.63;2.85;;;22.80;99.40;;;;;;5020217;28;20516;-88
2023/06/28 06:51:28;;;;;;;3.10;2.20;;;23.10;99.90;;;;;;5035573;28;20036;-88
2023/06/28 06:53:53;;;;;;;4.88;2.25;;;23.10;99.90;;;;;;5035588;28;20394;-88
2023/06/28 06:56:21;;;;;;;1.60;1.50;;;23.20;99.60;;;;;;5036056;28;20040;-88
2023/06/28 06:58:48;;;;;;;3.97;2.17;;;23.00;99.90;;;;;;5041955;28;20032;-89
2023/06/28 07:01:13;;;;;;;2.83;1.88;;;23.40;99.80;;;;;;5035246;28;20040;-88
2023/06/28 07:03:42;;;;;;;2.42;1.73;;;23.80;97.90;;;;;;5001544;28;20029;-87
2023/06/28 07:06:08;;;;;;;2.13;1.90;;;24.20;96.10;;;;;;5056820;28;20490;-87
2023/06/28 07:08:35;;;;;;;2.47;1.92;;;24.30;96.10;;;;;;5034563;28;20029;-88
2023/06/28 07:11:01;;;;;;;3.30;2.35;;;24.60;92.30;;;;;;5049705;28;20076;-86
2023/06/28 07:13:27;;;;;;;3.30;1.98;;;24.40;91.30;;;;;;5040771;28;20114;-88
2023/06/28 07:15:52;;;;;;;5.03;1.85;;;24.50;92.50;;;;;;5046425;28;20050;-89
2023/06/28 07:18:18;;;;;;;1.98;1.60;;;24.70;92.80;;;;;;5057466;28;20029;-89
2023/06/28 07:20:44;;;;;;;2.95;1.90;;;25.10;91.30;;;;;;5040428;28;20032;-89
2023/06/28 07:23:10;;;;;;;2.47;1.92;;;25.30;91.50;;;;;;5047893;28;20052;-89
2023/06/28 07:25:36;;;;;;;2.55;2.25;;;25.40;89.70;;;;;;5033006;28;20833;-89
2023/06/28 07:28:02;;;;;;;4.05;1.90;;;25.20;90.90;;;;;;5032770;28;20051;-89
2023/06/28 07:30:30;;;;;;;2.65;1.67;;;25.10;91.90;;;;;;5000077;28;20120;-89
2023/06/28 07:32:57;;;;;;;2.33;1.40;;;24.60;90.60;;;;;;5041681;28;20020;-88
2023/06/28 07:35:23;;;;;;;2.70;2.10;;;24.80;89.20;;;;;;5059460;28;20057;-89
2023/06/28 07:37:48;;;;;;;5.25;1.98;;;24.40;91.60;;;;;;5027801;28;20051;-88
2023/06/28 07:40:16;;;;;;;3.97;1.95;;;24.30;91.60;;;;;;5033001;28;20052;-89
2023/06/28 07:42:42;;;;;;;2.67;2.10;;;24.20;91.60;;;;;;5004296;28;20472;-90
2023/06/28 07:45:08;;;;;;;2.72;1.95;;;24.00;93.90;;;;;;5065404;28;20116;-90
2023/06/28 07:47:36;;;;;;;3.55;2.22;;;23.80;91.00;;;;;;5017227;28;20739;-91
2023/06/28 07:50:02;;;;;;;2.75;1.92;;;23.60;92.30;;;;;;5040468;28;20068;-87
2023/06/28 07:52:28;;;;;;;3.75;2.13;;;23.60;92.00;;;;;;5051238;28;20415;-88
2023/06/28 07:54:53;;;;;;;3.85;1.92;;;23.40;92.40;;;;;;5030108;28;20029;-89
2023/06/28 07:57:19;;;;;;;5.65;2.30;;;23.30;93.40;;;;;;5045972;28;20082;-87
2023/06/28 07:59:45;;;;;;;2.22;1.70;;;23.10;91.60;;;;;;5035334;28;20025;-88
2023/06/28 08:02:11;;;;;;;2.08;1.67;;;23.30;89.40;;;;;;5001196;28;20033;-88
2023/06/28 08:04:37;;;;;;;3.83;1.92;;;23.30;91.60;;;;;;5031757;28;20029;-89
2023/06/28 08:07:03;;;;;;;1.88;1.50;;;23.10;91.60;;;;;;5049482;28;20105;-90
2023/06/28 08:09:28;;;;;;;3.65;1.92;;;22.90;92.70;;;;;;5034671;28;20029;-89
2023/06/28 08:11:54;;;;;;;36.03;4.82;;;23.00;93.30;;;;;;5034888;28;20032;-88
2023/06/28 08:14:20;;;;;;;3.15;2.00;;;23.30;91.80;;;;;;5041311;28;20041;-88
2023/06/28 08:16:47;;;;;;;8.57;2.17;;;23.50;93.00;;;;;;5050750;28;20139;-88
2023/06/28 08:19:14;;;;;;;11.73;2.45;;;23.70;90.50;;;;;;5000268;28;20029;-88
2023/06/28 08:21:39;;;;;;;3.15;1.70;;;24.20;91.80;;;;;;5000457;28;20039;-88
2023/06/28 08:24:06;;;;;;;6.55;1.92;;;23.90;85.10;;;;;;5029592;28;20115;-89
2023/06/28 08:26:35;;;;;;;5.40;1.98;;;23.60;90.80;;;;;;5029486;28;20037;-89
2023/06/28 08:29:02;;;;;;;3.83;1.90;;;23.10;92.30;;;;;;5048277;28;20049;-89
2023/06/28 08:31:28;;;;;;;3.15;1.60;;;22.70;93.40;;;;;;5032790;28;20052;-88
2023/06/28 08:33:55;;;;;;;3.50;1.67;;;22.20;94.60;;;;;;5030866;28;20071;-89
2023/06/28 08:36:21;;;;;;;5.05;1.50;;;21.80;95.00;;;;;;5034322;28;20040;-87
2023/06/28 08:38:47;;;;;;;4.07;1.55;;;21.50;95.70;;;;;;5041422;28;20068;-87
2023/06/28 08:41:14;;;;;;;5.22;2.20;;;21.20;96.40;;;;;;5026840;28;20048;-87
2023/06/28 08:43:41;;;;;;;4.38;2.17;;;21.10;98.40;;;;;;5034064;28;20040;-88
2023/06/28 08:46:07;;;;;;;11.98;2.35;;;21.50;97.90;;;;;;5035085;28;20044;-87
2023/06/28 08:48:34;;;;;;;6.88;1.92;;;21.80;95.50;;;;;;5036267;28;20044;-86
2023/06/28 08:51:01;;;;;;;4.32;2.03;;;21.70;94.90;;;;;;5051839;28;20114;-87
2023/06/28 08:53:29;;;;;;;12.02;2.47;;;21.70;94.80;;;;;;5023000;28;20028;-88
2023/06/28 08:55:56;;;;;;;3.13;1.75;;;21.60;95.50;;;;;;5032618;28;20057;-89
2023/06/28 08:58:22;;;;;;;4.07;1.60;;;21.40;95.80;;;;;;5032821;28;20033;-87
2023/06/28 09:00:48;;;;;;;5.18;1.80;;;21.30;95.80;;;;;;5000093;28;20021;-88
2023/06/28 09:03:18;;;;;;;3.45;1.60;;;21.20;96.60;;;;;;5036409;28;20124;-87
2023/06/28 09:05:47;;;;;;;4.43;1.65;;;21.10;98.10;;;;;;5050791;28;20028;-87
2023/06/28 09:08:15;;;;;;;2.75;1.55;;;20.90;98.10;;;;;;5061363;28;20041;-88
2023/06/28 09:10:42;;;;;;;2.75;1.50;;;20.70;97.40;;;;;;5036601;28;20385;-88
2023/06/28 09:13:08;;;;;;;3.92;1.38;;;20.60;98.50;;;;;;5027465;28;20119;-88
2023/06/28 09:15:37;;;;;;;1.73;1.60;;;20.40;98.80;;;;;;5054107;28;20040;-87
2023/06/28 09:18:03;;;;;;;7.15;2.10;;;20.20;98.80;;;;;;5037138;28;20041;-89
2023/06/28 09:20:29;;;;;;;2.53;1.80;;;20.20;99.90;;;;;;5037116;28;20041;-88
2023/06/28 09:22:57;;;;;;;3.92;1.85;;;20.30;99.90;;;;;;5038680;28;20028;-88
2023/06/28 09:25:24;;;;;;;5.15;1.75;;;20.40;95.30;;;;;;5006479;28;20093;-88
2023/06/28 09:27:50;;;;;;;6.53;2.03;;;20.50;97.30;;;;;;5053733;28;20386;-89
2023/06/28 09:30:35;;;;;;;5.05;1.85;;;20.50;95.40;;;;;;5031126;28;20079;-90
2023/06/28 09:33:04;;;;;;;3.65;1.73;;;20.70;94.90;;;;;;5045134;28;20032;-88
2023/06/28 09:35:30;;;;;;;4.13;1.63;;;20.90;94.30;;;;;;5039224;28;20049;-90
2023/06/28 09:37:57;;;;;;;3.85;1.50;;;21.20;95.30;;;;;;5061193;28;20108;-89
2023/06/28 09:40:23;;;;;;;3.22;1.90;;;21.40;94.00;;;;;;5054404;28;20029;-88
2023/06/28 09:42:51;;;;;;;3.75;1.48;;;21.40;96.20;;;;;;5012198;28;20021;-89
2023/06/28 09:45:31;;;;;;;3.25;1.27;;;21.40;97.50;;;;;;5036495;28;20025;-89
2023/06/28 09:48:02;;;;;;;2.65;1.58;;;21.50;94.10;;;;;;5047369;28;20021;-88
2023/06/28 09:50:47;;;;;;;4.20;1.02;;;21.70;94.10;;;;;;5057421;28;20083;-87
2023/06/28 09:53:19;;;;;;;3.17;1.70;;;21.90;93.90;;;;;;5039290;28;20028;-87
2023/06/28 09:55:47;;;;;;;5.95;1.67;;;22.00;95.90;;;;;;5062527;28;20043;-87
2023/06/28 09:58:14;;;;;;;2.58;1.20;;;22.10;88.60;;;;;;5060735;28;20032;-88
2023/06/28 10:00:42;;;;;;;2.22;1.60;;;21.90;90.00;;;;;;5062092;28;20021;-89
2023/06/28 10:03:10;;;;;;;2.08;1.23;;;21.90;92.40;;;;;;5022801;28;20051;-88
2023/06/28 10:05:38;;;;;;;7.50;1.30;;;21.90;93.00;;;;;;5071050;28;20102;-91
2023/06/28 10:08:10;;;;;;;3.50;1.20;;;22.00;93.60;;;;;;5035923;28;20033;-89
2023/06/28 10:10:38;;;;;;;1.35;0.98;;;22.10;87.30;;;;;;5037567;28;20029;-89
2023/06/28 10:13:09;;;;;;;1.83;1.00;;;22.20;89.00;;;;;;5042796;28;20044;-86
2023/06/28 10:15:44;;;;;;;2.28;1.20;;;22.30;87.80;;;;;;5038092;28;20033;-88
2023/06/28 10:18:11;;;;;;;5.15;1.27;;;22.20;91.40;;;;;;5039504;28;20044;-88
2023/06/28 10:20:38;;;;;;;0.93;0.93;;;22.00;92.40;;;;;;5065827;28;20036;-88
2023/06/28 10:23:06;;;;;;;3.55;1.30;;;22.00;91.80;;;;;;5036763;28;20046;-89
2023/06/28 10:25:32;;;;;;;2.08;1.10;;;22.00;91.00;;;;;;5056364;28;20060;-88
2023/06/28 10:28:00;;;;;;;1.98;1.10;;;22.00;90.90;;;;;;5033960;28;20029;-88
2023/06/28 10:30:26;;;;;;;2.47;1.27;;;21.90;85.80;;;;;;5038512;28;20552;-88
2023/06/28 10:32:53;;;;;;;3.30;1.27;;;21.70;82.30;;;;;;5033969;28;20033;-88
2023/06/28 10:35:19;;;;;;;3.30;1.40;;;21.60;91.70;;;;;;5040164;28;20063;-89
2023/06/28 10:37:46;;;;;;;3.47;1.10;;;21.50;90.10;;;;;;5034920;28;20063;-88
2023/06/28 10:40:12;;;;;;;2.75;1.55;;;21.50;92.00;;;;;;5032725;28;20098;-86
2023/06/28 10:42:40;;;;;;;1.20;0.90;;;21.60;87.20;;;;;;5022748;28;20059;-87
2023/06/28 10:45:09;;;;;;;1.15;0.90;;;21.60;86.60;;;;;;5043136;28;20059;-88
2023/06/28 10:47:37;;;;;;;6.38;1.45;;;21.70;91.90;;;;;;5050926;28;20033;-88
2023/06/28 10:50:14;;;;;;;2.55;1.08;;;21.80;93.00;;;;;;5027164;28;20068;-88
2023/06/28 10:53:06;;;;;;;2.60;1.20;;;21.90;87.40;;;;;;5061018;28;20028;-87
2023/06/28 10:56:08;;;;;;;1.98;1.13;;;21.90;87.70;;;;;;5031336;28;20178;-88
2023/06/28 10:58:42;;;;;;;2.17;1.00;;;21.80;91.10;;;;;;5057062;28;20040;-88
2023/06/28 11:01:10;;;;;;;5.25;1.10;;;21.60;92.40;;;;;;5036604;28;21857;-86
2023/06/28 11:03:41;;;;;;;2.50;1.42;;;21.60;91.90;;;;;;5039153;28;20513;-88
2023/06/28 11:06:08;;;;;;;3.13;1.23;;;21.50;81.80;;;;;;5033021;28;20033;-88
2023/06/28 11:08:42;;;;;;;1.80;1.17;;;21.60;88.90;;;;;;5039896;28;20032;-87
2023/06/28 11:11:10;;;;;;;1.40;1.05;;;21.60;81.50;;;;;;5050451;28;20056;-88
2023/06/28 11:13:39;;;;;;;1.50;1.15;;;21.60;82.70;;;;;;5029762;28;20026;-86
2023/06/28 11:16:09;;;;;;;1.17;1.00;;;21.50;89.50;;;;;;5033986;28;20111;-87
2023/06/28 11:18:36;;;;;;;1.92;1.10;;;21.60;91.70;;;;;;5044591;28;20029;-88
2023/06/28 11:21:03;;;;;;;3.40;1.08;;;21.60;84.10;;;;;;5034139;28;20519;-88
2023/06/28 11:23:36;;;;;;;2.70;1.10;;;21.80;91.30;;;;;;5049687;28;20033;-87
2023/06/28 11:26:07;;;;;;;2.70;1.50;;;21.90;80.70;;;;;;5033301;28;20045;-87
2023/06/28 11:28:34;;;;;;;0.93;0.93;;;21.90;90.60;;;;;;5009596;28;20494;-87
2023/06/28 11:31:15;;;;;;;3.97;1.30;;;22.00;87.90;;;;;;5031086;28;20130;-87
2023/06/28 11:33:42;;;;;;;3.75;1.15;;;22.00;83.50;;;;;;5052645;28;20059;-87
2023/06/28 11:36:09;;;;;;;4.43;1.30;;;22.00;79.00;;;;;;5026705;28;20041;-86
2023/06/28 11:38:36;;;;;;;4.45;1.30;;;22.00;90.10;;;;;;5031647;28;20044;-87
2023/06/28 11:41:02;;;;;;;1.70;1.10;;;22.00;90.60;;;;;;5034675;28;20059;-87
2023/06/28 11:43:28;;;;;;;2.83;1.27;;;22.10;87.20;;;;;;5033974;28;20479;-87
2023/06/28 11:45:54;;;;;;;3.88;1.20;;;22.20;86.70;;;;;;5009706;28;20048;-88
2023/06/28 11:48:23;;;;;;;1.38;1.25;;;22.40;71.90;;;;;;5027547;28;20778;-88
2023/06/28 11:51:00;;;;;;;1.30;1.20;;;22.50;82.10;;;;;;5060550;28;20036;-87
2023/06/28 11:53:28;;;;;;;1.95;1.27;;;22.50;88.00;;;;;;5022366;28;20033;-88
2023/06/28 11:55:55;;;;;;;2.13;1.20;;;22.40;81.90;;;;;;5047150;28;20021;-88
2023/06/28 11:58:32;;;;;;;1.58;1.08;;;22.30;83.50;;;;;;5030841;28;20029;-88
2023/06/28 12:01:04;;;;;;;1.63;1.00;;;22.20;87.30;;;;;;5047329;28;20017;-89
2023/06/28 12:03:38;;;;;;;2.03;1.27;;;22.30;87.20;;;;;;5031072;28;20033;-88
2023/06/28 12:06:09;;;;;;;1.67;1.13;;;22.50;87.30;;;;;;5037195;28;20068;-88
2023/06/28 12:08:37;;;;;;;1.20;0.80;;;22.80;77.90;;;;;;5034172;28;20064;-89
2023/06/28 12:11:16;;;;;;;3.30;1.13;;;22.90;79.20;;;;;;5053155;28;20044;-89
2023/06/28 12:13:43;;;;;;;2.45;1.17;;;22.90;79.80;;;;;;5030678;28;20040;-89
2023/06/28 12:16:17;;;;;;;1.48;1.10;;;23.10;76.60;;;;;;5029803;28;20033;-89
2023/06/28 12:18:59;;;;;;;3.42;1.60;;;23.20;74.60;;;;;;5046872;28;20029;-89
2023/06/28 12:21:26;;;;;;;1.08;0.90;;;23.40;82.40;;;;;;5027573;28;20033;-88
2023/06/28 12:23:53;;;;;;;4.57;1.30;;;23.80;80.20;;;;;;5043999;28;20021;-88
2023/06/28 12:26:22;;;;;;;2.85;1.17;;;24.00;75.20;;;;;;5019963;28;20124;-89
2023/06/28 12:28:49;;;;;;;2.08;1.15;;;24.00;67.30;;;;;;5047450;28;20725;-89
2023/06/28 12:31:16;;;;;;;2.58;1.30;;;24.10;72.30;;;;;;5039974;28;20036;-90
2023/06/28 12:33:42;;;;;;;1.48;1.08;;;24.30;75.30;;;;;;5032024;28;20028;-89
2023/06/28 12:36:18;;;;;;;2.67;1.15;;;24.40;77.60;;;;;;5045395;28;20044;-89
2023/06/28 12:38:45;;;;;;;5.28;1.20;;;24.60;69.80;;;;;;5050180;28;20017;-89
2023/06/28 12:41:15;;;;;;;4.15;1.13;;;24.60;73.60;;;;;;5058028;28;20045;-87
2023/06/28 12:43:41;;;;;;;2.28;1.17;;;24.80;70.40;;;;;;5034537;28;20036;-90
2023/06/28 12:46:09;;;;;;;3.03;1.10;;;25.00;68.80;;;;;;5023947;28;20064;-90
2023/06/28 12:48:36;;;;;;;1.50;1.00;;;24.90;62.10;;;;;;5038542;28;20040;-90